MAPA DE AEROPUERTO

INFORMACIÓN METAR y TAF


Deprecated: The each() function is deprecated. This message will be suppressed on further calls in /home/customer/www/clickair-va.com/public_html/VAM/vam/helpers/get_metar.php on line 20
METAR FOR GVBA
ADDS - METARS form results

(0423 UTC 25 May 2022)
Data provider http://aviationweather.gov/metar/data/
 
Forecast for: GVBA (RABIL AIRPORT , CV)
Text: TAF GVBA 242300Z 2500/2606 02010KT 9999 BKN014
Forecast period: 0000 UTC 25 May 2022 to 0600 UTC 26 May 2022
Forecast type: FROM: standard forecast or significant change
Winds: from the NNE (20 degrees) at 12 MPH (10 knots; 5.1 m/s)
Visibility: 6 or more miles (10+ km)
Ceiling: 1400 feet AGL
Clouds: broken clouds at 1400 feet AGL
Weather: no significant weather forecast for this period
Text: PROB40 2513/2520 FEW014
Forecast period: 1300 to 2000 UTC 25 May 2022
Forecast type: PROBABLE: 40 percent likelihood of the following during this time
Visibility: missing
Ceiling: at least 12,000 feet AGL
Clouds: few clouds at 1400 feet AGL
Weather: no significant weather forecast for this period